This is the latest recevied weather packets stored in our database for station/object K1LBG. If no packets are shown the sender has not sent any weather packets the latest 10 day(s).
| Time | Temp. | Humidity | Pressure | Rain* | Wind** | Luminosity | Snow |
|---|---|---|---|---|---|---|---|
| 1777719399 | 7.78° C | 91% | 1011.9 hPa | 0 mm | - | - | - |
| 1777718498 | 7.78° C | 92% | 1011.6 hPa | 0 mm | - | - | - |
| 1777713403 | 7.78° C | 90% | 1011.3 hPa | 0 mm | - | - | - |
| 1777710080 | 7.22° C | 84% | 1011.5 hPa | 0 mm | - | - | - |
| 1777707981 | 7.22° C | 82% | 1011.3 hPa | 0 mm | - | - | - |
| 1777706185 | 7.22° C | 82% | 1011.4 hPa | 0 mm | - | - | - |
| 1777704694 | 7.78° C | 83% | 1011.6 hPa | 0 mm | - | - | - |
| 1777703481 | 7.78° C | 82% | 1011.6 hPa | 0 mm | - | - | - |
| 1777701404 | 7.22° C | 80% | 1011.5 hPa | 0 mm | - | - | - |
| 1777701090 | 7.22° C | 80% | 1011.6 hPa | 0 mm | - | - | - |
| 1777696588 | 8.33° C | 74% | 1011.8 hPa | 0 mm | - | - | - |
| 1777695689 | 8.89° C | 73% | 1011.8 hPa | 0 mm | - | - | - |
| 1777695104 | 8.89° C | 72% | 1011.7 hPa | 0 mm | - | - | - |
| 1777693005 | 9.44° C | 69% | 1011.7 hPa | 0 mm | - | - | - |
| 1777692087 | 9.44° C | 68% | 1011.7 hPa | 0 mm | - | - | - |
| 1777688811 | 8.33° C | 67% | 1011.7 hPa | 0 mm | - | - | - |
| 1777687290 | 8.89° C | 67% | 1011.2 hPa | 0 mm | - | - | - |
| 1777687033 | 8.89° C | 64% | 1011.2 hPa | 0 mm | - | - | - |
| 1777685191 | 9.44° C | 63% | 1011.2 hPa | 0 mm | - | - | - |
| 1777684880 | 10° C | 63% | 1011.1 hPa | 0 mm | - | - | - |
| 1777683392 | 10.56° C | 61% | 1010.9 hPa | 0 mm | - | - | - |
| 1777683081 | 10.56° C | 58% | 1010.8 hPa | 0 mm | - | - | - |
| 1777682183 | 11.11° C | 55% | 1010.6 hPa | 0 mm | - | - | - |
| 1777680397 | 12.78° C | 48% | 1010.2 hPa | 0 mm | - | - | - |
| 1777676783 | 15° C | 43% | 1009.2 hPa | 0 mm | - | - | - |
* Rain latest hour (hover to see other rain measurements)
** Current wind speed in m/s (hover to see current wind gust speed)